Crown Princess — ZCDM6 — position and weather

sailwx.info

Track history (hours):
 
Tides and Currents Weather Stations Pressure Air Temp Water Temp Dewpoint Dewpoint Depression Visibility Wind Speed Wind Dir Waves Ship Positions

Crown Princess

Last reported at 2014-Sep-01 09:04 UTC. Time now 2014-Sep-02 21:35 UTC.
Position N 54°24' W 131°07'.

Type: Ship. MMSI: 310500000.

Date/timePositionNaut miles runAvg speedWind from/ knotsBaromVisibWave heightAir tempDewpointWater temp
2014-Sep-01 09:04N 54°24' W 131°07'713.6
2014-Sep-01 08:32N 54°17' W 131°03'22415.0
2014-Aug-31 17:33N 51°03' W 127°57'1616.0
2014-Aug-31 16:34N 50°54' W 127°37'1817.6
2014-Aug-31 15:34N 50°46' W 127°12'1716.8
2014-Aug-31 14:32N 50°38' W 126°47'10312.8
2014-Aug-31 06:30N 49°38' W 124°38'1110.7
2014-Aug-31 05:29N 49°30' W 124°26'1010.6
2014-Aug-31 04:33N 49°25' W 124°13'10 9.6
2014-Aug-31 03:32N 49°22' W 123°59'10 9.5
2014-Aug-31 02:32N 49°20' W 123°44'1010.6
2014-Aug-31 01:33N 49°17' W 123°29'1111.2
2014-Aug-31 00:33N 49°19' W 123°12'4 4.2
2014-Aug-30 23:33N 49°17' W 123°06'0 0.0
2014-Aug-30 22:32N 49°17' W 123°06'0 0.0
2014-Aug-30 21:32N 49°17' W 123°06'0 0.0
2014-Aug-30 20:31N 49°17' W 123°06'0 0.0
2014-Aug-30 19:31N 49°17' W 123°06'0 0.0
2014-Aug-30 18:33N 49°17' W 123°06'0 0.0
2014-Aug-30 17:33N 49°17' W 123°06'0 0.0
2014-Aug-30 16:33N 49°17' W 123°06'0 0.0
2014-Aug-30 15:32N 49°17' W 123°06'0 0.0
2014-Aug-30 14:32N 49°17' W 123°06'0 0.1
2014-Aug-30 13:33N 49°17' W 123°06'8 8.3
2014-Aug-30 12:33N 49°18' W 123°19'1110.6
2014-Aug-30 11:33N 49°19' W 123°35'1110.5
2014-Aug-30 10:32N 49°21' W 123°51'1010.6
2014-Aug-30 09:33N 49°23' W 124°07'1110.9
2014-Aug-30 08:33N 49°27' W 124°23'1210.7
2014-Aug-30 07:24N 49°35' W 124°37'11713.2
2014-Aug-29 22:33N 50°44' W 127°04'1818.4
2014-Aug-29 21:33N 50°51' W 127°30'1514.7
2014-Aug-29 20:33N 50°59' W 127°50'1615.0
2014-Aug-29 19:29N 51°09' W 128°10'  
2014-Aug-26 04:33N 58°15' W 135°35'1313.1
2014-Aug-26 03:33N 58°21' W 135°57'1312.9
2014-Aug-26 02:33N 58°33' W 136°04'1313.0
2014-Aug-26 01:33N 58°44' W 136°17'3 0.4
2014-Aug-25 18:19N 58°42' W 136°13'1216.4
2014-Aug-25 17:33N 58°31' W 136°04'1111.1
2014-Aug-25 16:33N 58°20' W 136°07'  
Track history (hours):
 
Tides and Currents Weather Stations Pressure Air Temp Water Temp Dewpoint Dewpoint Depression Visibility Wind Speed Wind Dir Waves Ship Positions

Crown Princess

Last reported at 2014-Sep-01 09:04 UTC. Time now 2014-Sep-02 21:35 UTC.
Position N 54°24' W 131°07'.

Type: Ship. MMSI: 310500000.

Date/timePositionNaut miles runAvg speedWind from/ knotsBaromVisibWave heightAir tempDewpointWater temp
2014-Sep-01 09:04N 54°24' W 131°07'713.6
2014-Sep-01 08:32N 54°17' W 131°03'22415.0
2014-Aug-31 17:33N 51°03' W 127°57'1616.0
2014-Aug-31 16:34N 50°54' W 127°37'1817.6
2014-Aug-31 15:34N 50°46' W 127°12'1716.8
2014-Aug-31 14:32N 50°38' W 126°47'10312.8
2014-Aug-31 06:30N 49°38' W 124°38'1110.7
2014-Aug-31 05:29N 49°30' W 124°26'1010.6
2014-Aug-31 04:33N 49°25' W 124°13'10 9.6
2014-Aug-31 03:32N 49°22' W 123°59'10 9.5
2014-Aug-31 02:32N 49°20' W 123°44'1010.6
2014-Aug-31 01:33N 49°17' W 123°29'1111.2
2014-Aug-31 00:33N 49°19' W 123°12'4 4.2
2014-Aug-30 23:33N 49°17' W 123°06'0 0.0
2014-Aug-30 22:32N 49°17' W 123°06'0 0.0
2014-Aug-30 21:32N 49°17' W 123°06'0 0.0
2014-Aug-30 20:31N 49°17' W 123°06'0 0.0
2014-Aug-30 19:31N 49°17' W 123°06'0 0.0
2014-Aug-30 18:33N 49°17' W 123°06'0 0.0
2014-Aug-30 17:33N 49°17' W 123°06'0 0.0
2014-Aug-30 16:33N 49°17' W 123°06'0 0.0
2014-Aug-30 15:32N 49°17' W 123°06'0 0.0
2014-Aug-30 14:32N 49°17' W 123°06'0 0.1
2014-Aug-30 13:33N 49°17' W 123°06'8 8.3
2014-Aug-30 12:33N 49°18' W 123°19'1110.6
2014-Aug-30 11:33N 49°19' W 123°35'1110.5
2014-Aug-30 10:32N 49°21' W 123°51'1010.6
2014-Aug-30 09:33N 49°23' W 124°07'1110.9
2014-Aug-30 08:33N 49°27' W 124°23'1210.7
2014-Aug-30 07:24N 49°35' W 124°37'11713.2
2014-Aug-29 22:33N 50°44' W 127°04'1818.4
2014-Aug-29 21:33N 50°51' W 127°30'1514.7
2014-Aug-29 20:33N 50°59' W 127°50'1615.0
2014-Aug-29 19:29N 51°09' W 128°10'  
2014-Aug-26 04:33N 58°15' W 135°35'1313.1
2014-Aug-26 03:33N 58°21' W 135°57'1312.9
2014-Aug-26 02:33N 58°33' W 136°04'1313.0
2014-Aug-26 01:33N 58°44' W 136°17'3 0.4
2014-Aug-25 18:19N 58°42' W 136°13'1216.4
2014-Aug-25 17:33N 58°31' W 136°04'1111.1
2014-Aug-25 16:33N 58°20' W 136°07'  

Dump ship's entire track history